createdAt,value
2023-04-03T00:01:28.488Z,102884.94
2023-04-03T00:03:57.922Z,102894.84
2023-04-03T00:06:26.019Z,102890.53
2023-04-03T00:08:53.902Z,102895.47
2023-04-03T00:11:21.686Z,102894.22
2023-04-03T00:13:50.806Z,102895.66
2023-04-03T00:16:20.126Z,102901.28
2023-04-03T00:18:50.177Z,102895.91
2023-04-03T00:21:19.400Z,102905.63
2023-04-03T00:23:46.437Z,102905.03
2023-04-03T00:26:13.710Z,102907.28
2023-04-03T00:28:43.822Z,102901.03
2023-04-03T00:31:14.586Z,102904.31
2023-04-03T00:33:44.223Z,102902.13
2023-04-03T00:36:14.156Z,102904.44
2023-04-03T00:38:43.519Z,102909.19
2023-04-03T00:41:10.666Z,102915.22
2023-04-03T00:43:37.679Z,102913.06
2023-04-03T00:46:05.562Z,102915.13
2023-04-03T00:48:49.999Z,102920.19
2023-04-03T00:51:25.371Z,102914.50
2023-04-03T00:54:00.069Z,102918.13
2023-04-03T00:56:31.416Z,102908.84
2023-04-03T00:59:19.216Z,102921.41
2023-04-03T01:01:46.361Z,102924.59
2023-04-03T01:04:38.171Z,102919.09
2023-04-03T01:07:18.499Z,102929.38
2023-04-03T01:09:48.385Z,102921.91
2023-04-03T01:12:30.338Z,102926.41
2023-04-03T01:15:22.306Z,102927.09
2023-04-03T01:17:52.509Z,102926.09
2023-04-03T01:20:36.798Z,102925.22
2023-04-03T01:23:12.912Z,102923.81
2023-04-03T01:25:53.173Z,102921.25
2023-04-03T01:28:34.099Z,102922.94
2023-04-03T01:31:18.765Z,102927.63
2023-04-03T01:33:46.066Z,102927.22
2023-04-03T01:36:22.941Z,102921.53
2023-04-03T01:38:52.901Z,102927.88
2023-04-03T01:41:22.026Z,102922.19
2023-04-03T01:43:54.320Z,102921.25
2023-04-03T01:46:24.312Z,102923.72
2023-04-03T01:48:51.431Z,102923.13
2023-04-03T01:51:20.911Z,102924.06
2023-04-03T01:53:47.950Z,102930.22
2023-04-03T01:56:17.584Z,102934.84
2023-04-03T01:58:44.544Z,102927.63
2023-04-03T02:01:11.587Z,102939.00
2023-04-03T02:03:38.742Z,102939.88
2023-04-03T02:06:06.650Z,102936.06
2023-04-03T02:08:38.279Z,102935.91
2023-04-03T02:11:05.313Z,102934.84
2023-04-03T02:13:32.367Z,102937.34
2023-04-03T02:16:00.144Z,102933.38
2023-04-03T02:18:27.181Z,102930.28
2023-04-03T02:20:54.132Z,102923.72
2023-04-03T02:23:23.361Z,102930.91
2023-04-03T02:25:50.380Z,102925.53
2023-04-03T02:28:20.546Z,102927.34
2023-04-03T02:30:50.189Z,102940.47
2023-04-03T02:33:17.297Z,102934.03
2023-04-03T02:35:44.218Z,102940.69
2023-04-03T02:38:13.835Z,102942.03
2023-04-03T02:40:41.050Z,102943.06
2023-04-03T02:43:08.134Z,102942.09
2023-04-03T02:45:35.188Z,102947.50
2023-04-03T02:48:02.419Z,102939.16
2023-04-03T02:50:29.493Z,102942.28
2023-04-03T02:53:01.001Z,102940.72
2023-04-03T02:55:30.324Z,102943.19
2023-04-03T02:57:57.261Z,102945.75
2023-04-03T03:00:24.294Z,102941.22
2023-04-03T03:02:51.311Z,102950.56
2023-04-03T03:05:18.655Z,102943.94
2023-04-03T03:07:45.900Z,102943.75
2023-04-03T03:10:15.879Z,102945.50
2023-04-03T03:12:45.205Z,102943.50
2023-04-03T03:15:12.788Z,102945.25
2023-04-03T03:17:39.918Z,102943.75
2023-04-03T03:20:08.515Z,102942.66
2023-04-03T03:22:36.118Z,102948.88
2023-04-03T03:25:04.404Z,102946.69
2023-04-03T03:27:31.876Z,102948.00
2023-04-03T03:30:02.587Z,102944.81
2023-04-03T03:32:29.571Z,102944.63
2023-04-03T03:34:59.014Z,102949.63
2023-04-03T03:37:25.899Z,102947.63
2023-04-03T03:39:52.929Z,102939.47
2023-04-03T03:42:20.082Z,102947.13
2023-04-03T03:44:49.412Z,102947.94
2023-04-03T03:47:18.640Z,102940.22
2023-04-03T03:49:45.761Z,102942.16
2023-04-03T03:52:15.150Z,102943.75
2023-04-03T03:54:45.510Z,102949.00
2023-04-03T03:57:12.913Z,102946.38
2023-04-03T03:59:41.990Z,102938.91
2023-04-03T04:02:11.777Z,102951.22
2023-04-03T04:04:38.807Z,102950.44
2023-04-03T04:07:06.174Z,102952.84
2023-04-03T04:09:37.842Z,102951.97
2023-04-03T04:12:07.973Z,102960.88
2023-04-03T04:14:35.026Z,102957.34
2023-04-03T04:17:03.512Z,102957.44
2023-04-03T04:19:34.394Z,102955.78
2023-04-03T04:22:07.273Z,102954.56
2023-04-03T04:24:34.740Z,102964.53
2023-04-03T04:27:01.621Z,102953.22
2023-04-03T04:29:28.596Z,102964.84
2023-04-03T04:31:58.277Z,102965.66
2023-04-03T04:34:27.472Z,102963.00
2023-04-03T04:36:54.793Z,102970.69
2023-04-03T04:39:21.942Z,102969.50
2023-04-03T04:41:51.603Z,102976.53
2023-04-03T04:44:18.824Z,102983.16
2023-04-03T04:46:48.510Z,102981.28
2023-04-03T04:49:15.733Z,102979.25
2023-04-03T04:51:52.001Z,102982.69
2023-04-03T04:54:24.893Z,102991.44
2023-04-03T04:56:52.102Z,102985.59
2023-04-03T04:59:22.142Z,102994.56
2023-04-03T05:01:49.394Z,102997.69
2023-04-03T05:04:16.846Z,102987.59
2023-04-03T05:06:43.980Z,102991.75
2023-04-03T05:09:11.397Z,102991.69
2023-04-03T05:11:38.441Z,103000.03
2023-04-03T05:14:07.714Z,103001.03
2023-04-03T05:16:35.053Z,102998.50
2023-04-03T05:19:04.640Z,103004.84
2023-04-03T05:21:33.502Z,103009.16
2023-04-03T05:24:04.088Z,103009.78
2023-04-03T05:26:33.033Z,103008.09
2023-04-03T05:29:00.281Z,103002.53
2023-04-03T05:31:30.747Z,103011.13
2023-04-03T05:34:00.452Z,103014.56
2023-04-03T05:36:27.786Z,103010.25
2023-04-03T05:38:57.316Z,103015.25
2023-04-03T05:41:25.051Z,103010.13
2023-04-03T05:43:52.120Z,103020.47
2023-04-03T05:46:24.082Z,103024.06
2023-04-03T05:48:51.430Z,103024.41
2023-04-03T05:51:39.921Z,103029.63
2023-04-03T05:54:25.302Z,103026.81
2023-04-03T05:56:55.740Z,103040.41
2023-04-03T05:59:25.333Z,103039.03
2023-04-03T06:01:52.340Z,103038.69
2023-04-03T06:04:20.206Z,103024.81
2023-04-03T06:06:58.704Z,103032.97
2023-04-03T06:09:30.093Z,103034.91
2023-04-03T06:12:00.775Z,103033.50
2023-04-03T06:14:32.861Z,103038.06
2023-04-03T06:17:00.705Z,103031.53
2023-04-03T06:19:30.201Z,103038.38
2023-04-03T06:21:57.615Z,103038.69
2023-04-03T06:24:26.240Z,103031.56
2023-04-03T06:26:56.514Z,103039.34
2023-04-03T06:29:28.629Z,103037.59
2023-04-03T06:31:55.895Z,103038.63
2023-04-03T06:34:25.065Z,103045.72
2023-04-03T06:36:51.963Z,103037.94
2023-04-03T06:39:24.687Z,103041.19
2023-04-03T06:41:54.862Z,103048.41
2023-04-03T06:44:24.166Z,103048.19
2023-04-03T06:46:52.745Z,103052.34
2023-04-03T06:49:19.877Z,103053.22
2023-04-03T06:51:47.079Z,103050.66
2023-04-03T06:54:14.145Z,103057.94
2023-04-03T06:56:43.457Z,103065.09
2023-04-03T06:59:16.566Z,103060.03
2023-04-03T07:01:43.770Z,103066.28
2023-04-03T07:04:13.666Z,103058.28
2023-04-03T07:06:45.697Z,103058.72
2023-04-03T07:09:12.797Z,103050.63
2023-04-03T07:11:42.541Z,103059.75
2023-04-03T07:14:09.698Z,103066.97
2023-04-03T07:16:38.241Z,103054.16
2023-04-03T07:19:06.502Z,103065.03
2023-04-03T07:21:33.650Z,103061.78
2023-04-03T07:24:00.654Z,103066.25
2023-04-03T07:26:27.946Z,103067.81
2023-04-03T07:28:58.787Z,103064.59
2023-04-03T07:31:30.650Z,103070.75
2023-04-03T07:34:00.225Z,103074.69
2023-04-03T07:36:30.630Z,103065.94
2023-04-03T07:38:57.706Z,103076.34
2023-04-03T07:41:24.646Z,103072.19
2023-04-03T07:43:51.979Z,103071.16
2023-04-03T07:46:19.019Z,103073.94
2023-04-03T07:48:46.149Z,103076.16
2023-04-03T07:51:14.003Z,103079.25
2023-04-03T07:53:41.238Z,103082.75
2023-04-03T07:56:09.370Z,103076.50
2023-04-03T07:58:39.204Z,103079.44
2023-04-03T08:01:07.222Z,103082.59
2023-04-03T08:03:34.307Z,103072.72
2023-04-03T08:06:15.768Z,103076.00
2023-04-03T08:08:46.789Z,103075.78
2023-04-03T08:11:13.887Z,103073.28
2023-04-03T08:13:42.619Z,103073.44
2023-04-03T08:16:17.924Z,103084.13
2023-04-03T08:18:47.455Z,103076.38
2023-04-03T08:21:16.921Z,103078.59
2023-04-03T08:23:44.056Z,103078.03
2023-04-03T08:26:21.311Z,103073.13
2023-04-03T08:28:49.470Z,103076.19
2023-04-03T08:31:22.259Z,103073.94
2023-04-03T08:33:52.636Z,103075.84
2023-04-03T08:36:29.226Z,103070.09
2023-04-03T08:38:58.120Z,103075.34
2023-04-03T08:41:44.797Z,103069.56
2023-04-03T08:44:43.351Z,103070.66
2023-04-03T08:47:34.929Z,103078.41
2023-04-03T08:50:06.438Z,103074.69
2023-04-03T08:52:38.508Z,103067.22
2023-04-03T08:55:28.377Z,103070.06
2023-04-03T08:58:27.556Z,103074.56
2023-04-03T09:01:18.943Z,103066.88
2023-04-03T09:03:46.218Z,103065.72
2023-04-03T09:06:18.783Z,103067.28
2023-04-03T09:09:03.191Z,103067.56
2023-04-03T09:11:48.367Z,103063.66
2023-04-03T09:14:40.833Z,103070.50
2023-04-03T09:17:11.416Z,103069.59
2023-04-03T09:20:03.396Z,103066.88
2023-04-03T09:22:45.722Z,103067.34
2023-04-03T09:25:24.299Z,103057.34
2023-04-03T09:27:52.358Z,103056.97
2023-04-03T09:30:27.648Z,103057.91
2023-04-03T09:32:58.447Z,103053.72
2023-04-03T09:35:44.665Z,103060.78
2023-04-03T09:38:20.364Z,103059.97
2023-04-03T09:41:05.060Z,103059.38
2023-04-03T09:43:35.444Z,103056.31
2023-04-03T09:46:31.396Z,103054.78
2023-04-03T09:49:09.972Z,103049.84
2023-04-03T09:51:41.891Z,103044.91
2023-04-03T09:54:38.662Z,103048.34
2023-04-03T09:57:14.801Z,103037.66
2023-04-03T09:59:59.323Z,103040.88
2023-04-03T10:02:39.311Z,103042.97
2023-04-03T10:05:40.941Z,103030.84
2023-04-03T10:08:17.529Z,103029.75
2023-04-03T10:10:50.140Z,103024.50
2023-04-03T10:13:25.602Z,103022.25
2023-04-03T10:16:28.497Z,103024.69
2023-04-03T10:19:14.744Z,103028.16
2023-04-03T10:21:53.716Z,103029.59
2023-04-03T10:24:37.817Z,103018.75
2023-04-03T10:27:23.078Z,103012.41
2023-04-03T10:30:06.108Z,103008.84
2023-04-03T10:32:41.937Z,103004.81
2023-04-03T10:35:33.803Z,103009.41
2023-04-03T10:38:37.865Z,103009.75
2023-04-03T10:42:16.062Z,103001.38
2023-04-03T10:44:59.904Z,102995.38
2023-04-03T10:47:47.930Z,103006.97
2023-04-03T10:50:33.095Z,102998.94
2023-04-03T10:53:20.910Z,102988.66
2023-04-03T10:56:14.844Z,102992.13
2023-04-03T10:58:46.377Z,102982.38
2023-04-03T11:01:25.821Z,102975.81
2023-04-03T11:04:02.104Z,102971.31
2023-04-03T11:07:23.190Z,102974.03
2023-04-03T11:09:58.288Z,102960.84
2023-04-03T11:12:54.255Z,102964.81
2023-04-03T11:15:23.719Z,102955.59
2023-04-03T11:18:11.762Z,102960.44
2023-04-03T11:20:48.633Z,102960.25
2023-04-03T11:23:46.017Z,102959.59
2023-04-03T11:26:26.585Z,102957.59
2023-04-03T11:29:01.632Z,102965.53
2023-04-03T11:31:59.285Z,102965.47
2023-04-03T11:34:44.363Z,102966.69
2023-04-03T11:37:39.627Z,102951.03
2023-04-03T11:40:31.989Z,102948.19
2023-04-03T11:43:23.770Z,102947.88
2023-04-03T11:46:08.436Z,102948.56
2023-04-03T11:48:35.647Z,102951.09
2023-04-03T11:51:28.624Z,102944.84
2023-04-03T11:53:57.792Z,102943.34
2023-04-03T11:56:24.721Z,102945.34
2023-04-03T11:59:26.731Z,102929.50
2023-04-03T12:01:55.965Z,102929.25
2023-04-03T12:04:26.592Z,102940.53
2023-04-03T12:07:20.801Z,102925.75
2023-04-03T12:09:47.652Z,102925.84
2023-04-03T12:12:31.394Z,102915.16
2023-04-03T12:15:20.610Z,102926.59
2023-04-03T12:17:48.568Z,102912.50
2023-04-03T12:20:50.236Z,102922.84
2023-04-03T12:23:34.627Z,102923.94
2023-04-03T12:26:22.809Z,102913.75
2023-04-03T12:28:52.593Z,102901.03
2023-04-03T12:31:27.597Z,102905.91
2023-04-03T12:34:06.756Z,102906.66
2023-04-03T12:36:43.081Z,102909.38
2023-04-03T12:39:57.076Z,102914.75
2023-04-03T12:43:15.803Z,102903.50
2023-04-03T12:45:53.637Z,102907.56
2023-04-03T12:48:27.289Z,102899.84
2023-04-03T12:50:55.999Z,102887.47
2023-04-03T12:53:31.399Z,102892.34
2023-04-03T12:56:32.187Z,102897.28
2023-04-03T12:59:21.624Z,102895.66
2023-04-03T13:02:02.488Z,102904.03
2023-04-03T13:04:32.412Z,102891.78
2023-04-03T13:07:02.766Z,102893.88
2023-04-03T13:09:33.569Z,102887.28
2023-04-03T13:12:18.990Z,102882.25
2023-04-03T13:15:14.723Z,102879.59
2023-04-03T13:17:45.154Z,102870.44
2023-04-03T13:20:23.651Z,102879.69
2023-04-03T13:22:58.658Z,102876.72
2023-04-03T13:25:31.596Z,102876.72
2023-04-03T13:28:12.667Z,102873.94
2023-04-03T13:30:56.984Z,102870.47
2023-04-03T13:33:29.974Z,102865.88
2023-04-03T13:36:05.403Z,102873.53
2023-04-03T13:38:39.488Z,102867.56
2023-04-03T13:41:27.431Z,102865.25
2023-04-03T13:44:03.392Z,102859.00
2023-04-03T13:46:37.944Z,102856.72
2023-04-03T13:49:33.178Z,102854.97
2023-04-03T13:52:07.998Z,102853.19
2023-04-03T13:54:40.465Z,102852.22
2023-04-03T13:57:16.964Z,102853.25
2023-04-03T13:59:44.857Z,102858.97
2023-04-03T14:02:33.669Z,102853.91
2023-04-03T14:05:05.002Z,102851.81
2023-04-03T14:07:35.344Z,102840.59
2023-04-03T14:10:02.706Z,102847.69
2023-04-03T14:12:40.238Z,102842.47
2023-04-03T14:15:21.270Z,102844.03
2023-04-03T14:17:48.439Z,102839.38
2023-04-03T14:20:22.836Z,102838.16
2023-04-03T14:22:50.160Z,102839.53
2023-04-03T14:25:19.125Z,102837.34
2023-04-03T14:27:50.034Z,102833.94
2023-04-03T14:30:24.366Z,102836.34
2023-04-03T14:32:51.546Z,102834.25
2023-04-03T14:35:22.124Z,102836.66
2023-04-03T14:37:54.768Z,102840.03
2023-04-03T14:40:29.187Z,102844.63
2023-04-03T14:43:00.800Z,102834.28
2023-04-03T14:45:27.840Z,102826.69
2023-04-03T14:47:57.759Z,102822.28
2023-04-03T14:50:30.216Z,102828.69
2023-04-03T14:53:00.166Z,102829.59
2023-04-03T14:55:28.670Z,102820.31
2023-04-03T14:57:58.432Z,102808.94
2023-04-03T15:00:27.854Z,102817.28
2023-04-03T15:02:55.423Z,102817.03
2023-04-03T15:05:25.315Z,102825.34
2023-04-03T15:07:57.300Z,102815.38
2023-04-03T15:10:32.382Z,102821.38
2023-04-03T15:12:59.524Z,102816.19
2023-04-03T15:15:31.101Z,102808.22
2023-04-03T15:17:59.348Z,102816.50
2023-04-03T15:20:34.346Z,102810.53
2023-04-03T15:23:02.445Z,102821.91
2023-04-03T15:25:32.627Z,102824.25
2023-04-03T15:28:02.780Z,102820.44
2023-04-03T15:30:29.864Z,102819.22
2023-04-03T15:32:59.449Z,102818.09
2023-04-03T15:35:30.357Z,102813.91
2023-04-03T15:37:57.497Z,102811.56
2023-04-03T15:40:24.569Z,102817.59
2023-04-03T15:42:53.245Z,102812.19
2023-04-03T15:45:22.362Z,102819.09
2023-04-03T15:47:49.771Z,102819.59
2023-04-03T15:50:16.854Z,102823.28
2023-04-03T15:52:44.439Z,102820.69
2023-04-03T15:55:11.442Z,102817.13
2023-04-03T16:00:11.640Z,102815.66
2023-04-03T16:02:38.908Z,102813.44
2023-04-03T16:05:06.850Z,102816.16
2023-04-03T16:07:36.506Z,102805.56
2023-04-03T16:10:07.680Z,102816.16
2023-04-03T16:12:34.839Z,102815.03
2023-04-03T16:15:02.097Z,102818.22
2023-04-03T16:17:29.575Z,102810.75
2023-04-03T16:19:56.994Z,102814.22
2023-04-03T16:22:30.924Z,102810.69
2023-04-03T16:24:58.195Z,102814.56
2023-04-03T16:27:28.677Z,102808.88
2023-04-03T16:29:58.713Z,102805.72
2023-04-03T16:32:30.919Z,102810.47
2023-04-03T16:34:59.319Z,102810.25
2023-04-03T16:37:27.244Z,102808.78
2023-04-03T16:39:55.935Z,102806.38
2023-04-03T16:42:22.941Z,102805.97
2023-04-03T16:44:49.914Z,102816.78
2023-04-03T16:47:20.217Z,102809.00
2023-04-03T16:49:54.133Z,102813.28
2023-04-03T16:52:23.893Z,102811.72
2023-04-03T16:54:52.704Z,102810.47
2023-04-03T16:57:21.526Z,102797.91
2023-04-03T16:59:51.599Z,102808.63
2023-04-03T17:02:22.646Z,102809.81
2023-04-03T17:04:52.859Z,102811.75
2023-04-03T17:07:24.464Z,102820.72
2023-04-03T17:09:54.937Z,102811.94
2023-04-03T17:12:27.118Z,102815.69
2023-04-03T17:14:57.200Z,102811.06
2023-04-03T17:17:29.526Z,102805.84
2023-04-03T17:19:57.175Z,102809.75
2023-04-03T17:22:27.097Z,102824.84
2023-04-03T17:24:54.119Z,102821.44
2023-04-03T17:27:21.325Z,102810.72
2023-04-03T17:29:50.586Z,102816.59
2023-04-03T17:32:17.913Z,102821.28
2023-04-03T17:34:48.356Z,102824.09
2023-04-03T17:37:18.086Z,102828.00
2023-04-03T17:39:46.894Z,102817.69
2023-04-03T17:42:13.941Z,102823.69
2023-04-03T17:44:43.257Z,102823.84
2023-04-03T17:47:10.736Z,102825.94
2023-04-03T17:49:40.261Z,102829.22
2023-04-03T17:52:07.213Z,102822.88
2023-04-03T17:54:34.641Z,102832.38
2023-04-03T17:57:04.740Z,102832.84
2023-04-03T17:59:34.731Z,102845.47
2023-04-03T18:02:04.201Z,102830.84
2023-04-03T18:04:33.229Z,102835.84
2023-04-03T18:07:02.097Z,102833.75
2023-04-03T18:09:36.441Z,102827.50
2023-04-03T18:12:07.340Z,102832.81
2023-04-03T18:14:36.542Z,102831.34
2023-04-03T18:17:03.944Z,102827.50
2023-04-03T18:19:30.976Z,102834.06
2023-04-03T18:22:06.699Z,102831.56
2023-04-03T18:24:37.152Z,102830.59
2023-04-03T18:27:18.807Z,102824.03
2023-04-03T18:29:53.101Z,102825.72
2023-04-03T18:32:24.263Z,102835.38
2023-04-03T18:34:51.550Z,102840.06
2023-04-03T18:37:19.121Z,102837.50
2023-04-03T18:39:48.273Z,102846.16
2023-04-03T18:42:20.231Z,102833.41
2023-04-03T18:44:55.155Z,102834.19
2023-04-03T18:47:22.216Z,102837.47
2023-04-03T18:49:49.293Z,102841.50
2023-04-03T18:52:16.274Z,102839.06
2023-04-03T18:54:43.362Z,102839.59
2023-04-03T18:57:12.848Z,102840.47
2023-04-03T18:59:44.396Z,102835.41
2023-04-03T19:02:14.225Z,102839.59
2023-04-03T19:04:44.185Z,102842.38
2023-04-03T19:07:11.546Z,102845.13
2023-04-03T19:09:40.937Z,102841.50
2023-04-03T19:12:08.301Z,102841.19
2023-04-03T19:14:35.572Z,102851.44
2023-04-03T19:17:04.165Z,102846.75
2023-04-03T19:19:33.489Z,102844.94
2023-04-03T19:22:00.699Z,102847.78
2023-04-03T19:24:27.999Z,102854.03
2023-04-03T19:26:57.488Z,102844.13
2023-04-03T19:29:27.466Z,102838.84
2023-04-03T19:31:54.729Z,102838.06
2023-04-03T19:34:22.003Z,102843.38
2023-04-03T19:36:52.276Z,102839.97
2023-04-03T19:39:19.313Z,102847.97
2023-04-03T19:41:47.088Z,102843.25
2023-04-03T19:44:16.560Z,102840.50
2023-04-03T19:46:51.353Z,102835.97
2023-04-03T19:49:20.020Z,102831.81
2023-04-03T19:51:49.416Z,102832.59
2023-04-03T19:54:19.600Z,102841.53
2023-04-03T19:56:49.084Z,102835.63
2023-04-03T19:59:19.089Z,102836.22
2023-04-03T20:01:46.446Z,102838.97
2023-04-03T20:04:16.571Z,102832.56
2023-04-03T20:06:43.583Z,102822.56
2023-04-03T20:09:10.974Z,102821.22
2023-04-03T20:11:40.377Z,102823.75
2023-04-03T20:14:07.734Z,102819.75
2023-04-03T20:16:38.067Z,102813.66
2023-04-03T20:19:07.849Z,102821.81
2023-04-03T20:21:35.080Z,102816.97
2023-04-03T20:24:04.401Z,102810.34
2023-04-03T20:26:42.256Z,102803.03
2023-04-03T20:29:12.183Z,102800.75
2023-04-03T20:31:42.233Z,102807.53
2023-04-03T20:34:11.930Z,102800.78
2023-04-03T20:36:39.111Z,102798.34
2023-04-03T20:39:06.407Z,102805.31
2023-04-03T20:41:37.875Z,102791.25
2023-04-03T20:44:05.734Z,102791.84
2023-04-03T20:46:48.827Z,102790.81
2023-04-03T20:49:23.248Z,102787.56
2023-04-03T20:51:53.010Z,102789.03
2023-04-03T20:54:20.481Z,102783.97
2023-04-03T20:56:49.951Z,102782.16
2023-04-03T20:59:18.870Z,102786.34
2023-04-03T21:01:47.573Z,102786.81
2023-04-03T21:04:30.406Z,102784.28
2023-04-03T21:07:54.563Z,102777.28
2023-04-03T21:11:23.564Z,102793.78
2023-04-03T21:14:48.592Z,102792.13
2023-04-03T21:17:15.824Z,102794.41
2023-04-03T21:19:51.481Z,102793.31
2023-04-03T21:22:20.408Z,102789.81
2023-04-03T21:24:48.427Z,102800.53
2023-04-03T21:27:16.029Z,102793.16
2023-04-03T21:29:46.348Z,102793.69
2023-04-03T21:32:15.789Z,102798.34
2023-04-03T21:34:42.919Z,102785.44
2023-04-03T21:37:11.925Z,102787.69
2023-04-03T21:39:38.963Z,102783.09
2023-04-03T21:42:07.458Z,102792.75
2023-04-03T21:44:37.183Z,102791.00
2023-04-03T21:47:05.066Z,102796.38
2023-04-03T21:49:34.360Z,102794.41
2023-04-03T21:52:03.636Z,102788.88
2023-04-03T21:54:30.705Z,102788.88
2023-04-03T21:56:57.742Z,102792.91
2023-04-03T21:59:27.389Z,102795.03
2023-04-03T22:01:54.547Z,102786.34
2023-04-03T22:04:26.706Z,102800.50
2023-04-03T22:06:53.699Z,102790.47
2023-04-03T22:09:20.816Z,102785.88
2023-04-03T22:11:52.627Z,102791.94
2023-04-03T22:14:20.367Z,102787.41
2023-04-03T22:16:47.632Z,102787.72
2023-04-03T22:19:14.823Z,102788.81
2023-04-03T22:21:43.859Z,102784.31
2023-04-03T22:24:10.798Z,102788.00
2023-04-03T22:26:38.905Z,102780.84
2023-04-03T22:29:06.127Z,102772.63
2023-04-03T22:31:33.354Z,102780.59
2023-04-03T22:34:04.243Z,102782.34
2023-04-03T22:36:31.302Z,102773.66
2023-04-03T22:38:58.757Z,102777.44
2023-04-03T22:41:28.084Z,102782.00
2023-04-03T22:43:59.107Z,102771.03
2023-04-03T22:46:29.051Z,102769.47
2023-04-03T22:48:56.152Z,102763.41
2023-04-03T22:51:25.493Z,102772.53
2023-04-03T22:53:52.473Z,102777.75
2023-04-03T22:56:23.944Z,102771.22
2023-04-03T22:58:52.872Z,102773.69
2023-04-03T23:01:20.355Z,102777.88
2023-04-03T23:03:47.351Z,102780.66
2023-04-03T23:06:16.874Z,102778.47
2023-04-03T23:08:44.829Z,102775.84
2023-04-03T23:11:14.274Z,102777.81
2023-04-03T23:13:43.594Z,102777.25
2023-04-03T23:16:13.248Z,102775.78
2023-04-03T23:18:43.885Z,102783.25
2023-04-03T23:21:11.293Z,102778.63
2023-04-03T23:23:40.683Z,102773.59
2023-04-03T23:26:09.653Z,102775.66
2023-04-03T23:28:37.070Z,102780.66
2023-04-03T23:31:07.281Z,102778.63
2023-04-03T23:33:34.677Z,102776.66
2023-04-03T23:36:10.274Z,102776.22
2023-04-03T23:38:39.811Z,102779.50
2023-04-03T23:41:09.042Z,102771.22
2023-04-03T23:43:36.176Z,102775.00
2023-04-03T23:46:03.423Z,102781.38
2023-04-03T23:48:33.113Z,102775.69
2023-04-03T23:51:00.016Z,102781.94
2023-04-03T23:53:29.649Z,102778.38
2023-04-03T23:55:56.737Z,102780.63
2023-04-03T23:58:23.798Z,102778.91
